Time;durP1;ratioP1;P1;durP2;ratioP2;P2;SDS_P1;SDS_P2;PMS_P1;PMS_P2;Temp;Humidity;BMP_temperature;BMP_pressure;BME280_temperature;BME280_humidity;BME280_pressure;Samples;Min_cycle;Max_cycle;Signal;HPM_P1;HPM_P2
2022/10/20 00:01:26;;;;;;;;;;;;;;;10.95;100.00;96785.94;5097725;28;19973;-72
2022/10/20 00:03:52;;;;;;;;;;;;;;;10.94;100.00;96786.13;5097831;28;20060;-72
2022/10/20 00:06:20;;;;;;;;;;;;;;;10.90;100.00;96788.41;5097575;28;19945;-72
2022/10/20 00:08:46;;;;;;;;;;;;;;;10.89;100.00;96786.78;5097714;28;19977;-72
2022/10/20 00:11:14;;;;;;;;;;;;;;;10.88;100.00;96787.00;5098061;28;20453;-71
2022/10/20 00:13:40;;;;;;;;;;;;;;;10.87;100.00;96778.31;5086036;28;19974;-72
2022/10/20 00:16:07;;;;;;;;;;;;;;;10.86;100.00;96784.59;5097480;28;19952;-72
2022/10/20 00:18:33;;;;;;;;;;;;;;;10.83;100.00;96790.25;5097648;28;19988;-72
2022/10/20 00:20:58;;;;;;;;;;;;;;;10.81;100.00;96778.34;5097422;28;19973;-72
2022/10/20 00:23:24;;;;;;;;;;;;;;;10.77;100.00;96762.22;5097810;28;20011;-72
2022/10/20 00:26:00;;;;;;;;;;;;;;;10.74;100.00;96768.69;5097478;28;19966;-72
2022/10/20 00:28:26;;;;;;;;;;;;;;;10.71;100.00;96771.75;5097607;28;20328;-72
2022/10/20 00:30:55;;;;;;;;;;;;;;;10.71;100.00;96770.97;5097186;28;19953;-72
2022/10/20 00:33:21;;;;;;;;;;;;;;;10.70;100.00;96771.97;5086946;28;19959;-72
2022/10/20 00:35:47;;;;;;;;;;;;;;;10.69;100.00;96771.16;5097072;28;19951;-72
2022/10/20 00:38:13;;;;;;;;;;;;;;;10.70;100.00;96774.59;5097011;28;19999;-72
2022/10/20 00:40:39;;;;;;;;;;;;;;;10.69;100.00;96775.59;5097694;28;20469;-72
2022/10/20 00:43:09;;;;;;;;;;;;;;;10.67;100.00;96770.56;5096988;28;19960;-72
2022/10/20 00:45:34;;;;;;;;;;;;;;;10.64;100.00;96764.94;5097333;28;19952;-72
2022/10/20 00:48:21;;;;;;;;;;;;;;;10.63;100.00;96755.47;5096918;28;20450;-72
2022/10/20 00:50:52;;;;;;;;;;;;;;;10.61;100.00;96753.03;5097082;28;19960;-72
2022/10/20 00:53:20;;;;;;;;;;;;;;;10.59;100.00;96741.16;5096781;28;19950;-72
2022/10/20 00:55:47;;;;;;;;;;;;;;;10.56;100.00;96739.75;5096613;28;19970;-72
2022/10/20 00:58:13;;;;;;;;;;;;;;;10.54;100.00;96739.16;5096798;28;19949;-72
2022/10/20 01:00:41;;;;;;;;;;;;;;;10.53;100.00;96740.16;5096462;28;19970;-72
2022/10/20 01:03:11;;;;;;;;;;;;;;;10.54;100.00;96741.75;5096842;28;19956;-71
2022/10/20 01:05:38;;;;;;;;;;;;;;;10.54;100.00;96734.72;5096591;28;19958;-72
2022/10/20 01:08:04;;;;;;;;;;;;;;;10.54;100.00;96733.91;5095467;28;19954;-71
2022/10/20 01:10:35;;;;;;;;;;;;;;;10.50;100.00;96728.28;5096331;28;20507;-72
2022/10/20 01:13:13;;;;;;;;;;;;;;;10.49;100.00;96733.75;5096625;28;19955;-72
2022/10/20 01:15:39;;;;;;;;;;;;;;;10.48;100.00;96727.69;5096283;28;19954;-71
2022/10/20 01:18:31;;;;;;;;;;;;;;;10.45;100.00;96728.09;5096063;28;19949;-72
2022/10/20 01:21:04;;;;;;;;;;;;;;;10.43;100.00;96726.72;5072523;28;19971;-72
2022/10/20 01:23:38;;;;;;;;;;;;;;;10.39;100.00;96720.28;5096127;28;19956;-72
2022/10/20 01:26:07;;;;;;;;;;;;;;;10.36;100.00;96718.88;5096342;28;19954;-72
2022/10/20 01:28:56;;;;;;;;;;;;;;;10.33;100.00;96717.50;5096222;28;19952;-72
2022/10/20 01:31:28;;;;;;;;;;;;;;;10.32;100.00;96705.38;5096114;28;19956;-71
2022/10/20 01:33:54;;;;;;;;;;;;;;;10.31;100.00;96709.03;5096168;28;19954;-71
2022/10/20 01:36:28;;;;;;;;;;;;;;;10.32;100.00;96701.97;5095927;28;20347;-73
2022/10/20 01:39:05;;;;;;;;;;;;;;;10.50;100.00;96703.91;5095436;28;19950;-72
2022/10/20 01:41:38;;;;;;;;;;;;;;;10.61;100.00;96694.56;5096062;28;19954;-72
2022/10/20 01:44:07;;;;;;;;;;;;;;;10.60;100.00;96688.47;5095997;28;19964;-71
2022/10/20 01:46:34;;;;;;;;;;;;;;;10.57;100.00;96688.91;5095700;28;20021;-72
2022/10/20 01:49:02;;;;;;;;;;;;;;;10.53;100.00;96692.97;5095984;28;19958;-72
2022/10/20 01:51:28;;;;;;;;;;;;;;;10.48;100.00;96687.56;5096171;28;19959;-72
2022/10/20 01:53:54;;;;;;;;;;;;;;;10.42;100.00;96683.16;5095579;28;19958;-72
2022/10/20 01:56:25;;;;;;;;;;;;;;;10.36;100.00;96688.22;5095606;28;19945;-71
2022/10/20 01:59:14;;;;;;;;;;;;;;;10.33;100.00;96690.44;5094778;28;20425;-72
2022/10/20 02:02:03;;;;;;;;;;;;;;;10.30;100.00;96683.03;5095259;28;19973;-72
2022/10/20 02:04:37;;;;;;;;;;;;;;;10.26;100.00;96673.94;5085785;28;19961;-72
2022/10/20 02:07:09;;;;;;;;;;;;;;;10.24;100.00;96670.72;5086233;28;19952;-72
2022/10/20 02:09:39;;;;;;;;;;;;;;;10.20;100.00;96659.84;5095615;28;19950;-72
2022/10/20 02:12:16;;;;;;;;;;;;;;;10.19;100.00;96653.00;5094738;28;19957;-72
2022/10/20 02:14:43;;;;;;;;;;;;;;;10.18;100.00;96661.88;5095799;28;19957;-72
2022/10/20 02:17:11;;;;;;;;;;;;;;;10.17;100.00;96662.91;5095268;28;19943;-72
2022/10/20 02:19:41;;;;;;;;;;;;;;;10.18;100.00;96672.34;5094843;28;19996;-72
2022/10/20 02:22:08;;;;;;;;;;;;;;;10.18;100.00;96668.94;5095332;28;19977;-71
2022/10/20 02:24:36;;;;;;;;;;;;;;;10.19;100.00;96663.50;5095085;28;19973;-72
2022/10/20 02:27:04;;;;;;;;;;;;;;;10.20;100.00;96662.47;5095192;28;20323;-72
2022/10/20 02:29:34;;;;;;;;;;;;;;;10.20;100.00;96667.72;5094923;28;19962;-71
2022/10/20 02:32:00;;;;;;;;;;;;;;;10.22;100.00;96659.63;5095006;28;19956;-71
2022/10/20 02:34:26;;;;;;;;;;;;;;;10.22;100.00;96657.81;5094753;28;19962;-71
2022/10/20 02:36:54;;;;;;;;;;;;;;;10.23;100.00;96659.44;5094954;28;19957;-71
2022/10/20 02:39:20;;;;;;;;;;;;;;;10.21;100.00;96648.38;5094682;28;20422;-71
2022/10/20 02:41:46;;;;;;;;;;;;;;;10.20;100.00;96643.31;5095012;28;19966;-72
2022/10/20 02:44:12;;;;;;;;;;;;;;;10.19;100.00;96645.16;5094785;28;19953;-72
2022/10/20 02:46:38;;;;;;;;;;;;;;;10.20;100.00;96648.56;5094785;28;19958;-72
2022/10/20 02:49:04;;;;;;;;;;;;;;;10.18;100.00;96648.75;5094956;28;20377;-72
2022/10/20 02:51:30;;;;;;;;;;;;;;;10.18;100.00;96646.16;5094225;28;19968;-72
2022/10/20 02:53:56;;;;;;;;;;;;;;;10.19;100.00;96646.97;5093414;28;19957;-72
2022/10/20 02:56:21;;;;;;;;;;;;;;;10.20;100.00;96656.44;5094568;28;20087;-72
2022/10/20 02:58:48;;;;;;;;;;;;;;;10.21;100.00;96656.22;5094134;28;19959;-72
2022/10/20 03:01:13;;;;;;;;;;;;;;;10.22;100.00;96655.19;5094375;28;19973;-72
2022/10/20 03:03:39;;;;;;;;;;;;;;;10.23;100.00;96638.47;5094195;28;19990;-72
2022/10/20 03:06:09;;;;;;;;;;;;;;;10.25;100.00;96654.78;5094378;28;19956;-72
2022/10/20 03:08:35;;;;;;;;;;;;;;;10.26;100.00;96650.34;5094625;28;19946;-72
2022/10/20 03:11:01;;;;;;;;;;;;;;;10.29;100.00;96650.78;5094095;28;20334;-72
2022/10/20 03:13:27;;;;;;;;;;;;;;;10.31;100.00;96650.53;5094535;28;20406;-72
2022/10/20 03:15:53;;;;;;;;;;;;;;;10.31;100.00;96645.28;5093845;28;20012;-72
2022/10/20 03:18:19;;;;;;;;;;;;;;;10.32;100.00;96642.47;5094373;28;20471;-72
2022/10/20 03:20:45;;;;;;;;;;;;;;;10.32;100.00;96641.66;5094170;28;19995;-72
2022/10/20 03:23:11;;;;;;;;;;;;;;;10.33;100.00;96635.41;5093160;28;20062;-72
2022/10/20 03:25:36;;;;;;;;;;;;;;;10.33;100.00;96632.78;5094139;28;20399;-72
2022/10/20 03:28:02;;;;;;;;;;;;;;;10.35;100.00;96639.44;5094215;28;20353;-72
2022/10/20 03:30:28;;;;;;;;;;;;;;;10.35;100.00;96633.38;5093112;28;19982;-72
2022/10/20 03:32:54;;;;;;;;;;;;;;;10.35;100.00;96642.06;5093772;28;20019;-72
2022/10/20 03:35:20;;;;;;;;;;;;;;;10.36;100.00;96635.78;5092894;28;20320;-72
2022/10/20 03:37:46;;;;;;;;;;;;;;;10.39;100.00;96641.63;5094468;28;19964;-72
2022/10/20 03:40:12;;;;;;;;;;;;;;;10.40;100.00;96638.00;5093567;28;20321;-71
2022/10/20 03:42:38;;;;;;;;;;;;;;;10.42;100.00;96628.91;5093737;28;20074;-72
2022/10/20 03:45:04;;;;;;;;;;;;;;;10.42;100.00;96625.50;5093652;28;19951;-72
2022/10/20 03:47:30;;;;;;;;;;;;;;;10.44;100.00;96626.88;5093795;28;20020;-72
2022/10/20 03:49:56;;;;;;;;;;;;;;;10.44;100.00;96626.06;5093876;28;20475;-72
2022/10/20 03:52:21;;;;;;;;;;;;;;;10.45;100.00;96625.06;5093894;28;19965;-72
2022/10/20 03:54:47;;;;;;;;;;;;;;;10.45;100.00;96625.06;5093688;28;20003;-72
2022/10/20 03:57:13;;;;;;;;;;;;;;;10.45;100.00;96617.19;5093637;28;19959;-72
2022/10/20 03:59:39;;;;;;;;;;;;;;;10.45;100.00;96617.97;5093681;28;19950;-72
2022/10/20 04:02:05;;;;;;;;;;;;;;;10.44;100.00;96615.59;5093349;28;19972;-72
2022/10/20 04:04:31;;;;;;;;;;;;;;;10.42;100.00;96607.94;5093058;28;20010;-72
2022/10/20 04:06:57;;;;;;;;;;;;;;;10.42;100.00;96605.31;5093504;28;19951;-72
2022/10/20 04:09:22;;;;;;;;;;;;;;;10.41;100.00;96605.50;5092483;28;19959;-72
2022/10/20 04:11:48;;;;;;;;;;;;;;;10.40;100.00;96611.78;5093687;28;19955;-72
2022/10/20 04:14:14;;;;;;;;;;;;;;;10.38;100.00;96606.75;5093564;28;20005;-72
2022/10/20 04:16:40;;;;;;;;;;;;;;;10.36;100.00;96596.47;5093365;28;20411;-72
2022/10/20 04:19:06;;;;;;;;;;;;;;;10.33;100.00;96596.91;5093453;28;19983;-72
2022/10/20 04:21:32;;;;;;;;;;;;;;;10.32;100.00;96608.38;5093302;28;20020;-72
2022/10/20 04:23:58;;;;;;;;;;;;;;;10.30;100.00;96610.41;5093190;28;19952;-72
2022/10/20 04:26:24;;;;;;;;;;;;;;;10.29;100.00;96614.06;5093502;28;19999;-72
2022/10/20 04:28:50;;;;;;;;;;;;;;;10.30;100.00;96607.00;5093394;28;19956;-72
2022/10/20 04:31:16;;;;;;;;;;;;;;;10.28;100.00;96609.78;5093291;28;19956;-72
2022/10/20 04:33:41;;;;;;;;;;;;;;;10.27;100.00;96602.97;5093439;28;20043;-73
2022/10/20 04:36:11;;;;;;;;;;;;;;;10.26;100.00;96601.34;5093470;28;19955;-72
2022/10/20 04:38:37;;;;;;;;;;;;;;;10.21;100.00;96601.19;5093311;28;20312;-72
2022/10/20 04:41:03;;;;;;;;;;;;;;;10.20;100.00;96596.16;5093250;28;19954;-72
2022/10/20 04:43:30;;;;;;;;;;;;;;;10.18;100.00;96598.16;5096760;28;19959;-73
2022/10/20 04:46:03;;;;;;;;;;;;;;;10.15;100.00;96586.31;5096212;28;20298;-73
2022/10/20 04:48:29;;;;;;;;;;;;;;;10.12;100.00;96586.72;5096986;28;19947;-73
2022/10/20 04:51:14;;;;;;;;;;;;;;;10.10;100.00;96584.31;5097200;28;20300;-72
2022/10/20 04:53:40;;;;;;;;;;;;;;;10.08;100.00;96582.91;5087772;28;19949;-72
2022/10/20 04:56:07;;;;;;;;;;;;;;;10.08;100.00;96585.53;5096672;28;19960;-71
2022/10/20 04:58:33;;;;;;;;;;;;;;;10.06;100.00;96574.47;5096826;28;19949;-71
2022/10/20 05:01:07;;;;;;;;;;;;;;;10.06;100.00;96577.09;5096566;28;19955;-71
2022/10/20 05:03:33;;;;;;;;;;;;;;;10.06;100.00;96564.78;5096666;28;19948;-71
2022/10/20 05:06:08;;;;;;;;;;;;;;;10.06;100.00;96561.38;5096751;28;19953;-72
2022/10/20 05:08:34;;;;;;;;;;;;;;;10.04;100.00;96573.88;5096423;28;19945;-72
2022/10/20 05:11:00;;;;;;;;;;;;;;;10.02;100.00;96568.06;5096444;28;20000;-72
2022/10/20 05:13:26;;;;;;;;;;;;;;;10.00;100.00;96560.41;5096892;28;20054;-72
2022/10/20 05:15:52;;;;;;;;;;;;;;;10.00;100.00;96557.78;5096589;28;19952;-72
2022/10/20 05:18:18;;;;;;;;;;;;;;;9.98;100.00;96557.19;5096153;28;19989;-72
2022/10/20 05:20:44;;;;;;;;;;;;;;;9.96;100.00;96551.34;5096439;28;19963;-72
2022/10/20 05:23:09;;;;;;;;;;;;;;;9.93;100.00;96551.75;5096158;28;19965;-72
2022/10/20 05:25:36;;;;;;;;;;;;;;;9.89;100.00;96546.16;5096299;28;20043;-72
2022/10/20 05:28:01;;;;;;;;;;;;;;;9.86;100.00;96538.69;5096057;28;19946;-72
2022/10/20 05:30:27;;;;;;;;;;;;;;;9.83;100.00;96539.13;5096194;28;20494;-72
2022/10/20 05:32:53;;;;;;;;;;;;;;;9.82;100.00;96534.91;5095660;28;19955;-72
2022/10/20 05:35:19;;;;;;;;;;;;;;;9.81;100.00;96530.69;5096343;28;19960;-72
2022/10/20 05:37:45;;;;;;;;;;;;;;;9.81;100.00;96530.69;5094770;28;19959;-72
2022/10/20 05:40:11;;;;;;;;;;;;;;;9.81;100.00;96529.91;5079714;28;19952;-71
2022/10/20 05:42:37;;;;;;;;;;;;;;;9.82;100.00;96531.47;5095745;28;19985;-71
2022/10/20 05:45:03;;;;;;;;;;;;;;;9.80;100.00;96526.44;5096290;28;20318;-71
2022/10/20 05:47:29;;;;;;;;;;;;;;;9.80;100.00;96526.44;5095171;28;20434;-72
2022/10/20 05:49:55;;;;;;;;;;;;;;;9.81;100.00;96517.59;5095690;28;19962;-71
2022/10/20 05:52:21;;;;;;;;;;;;;;;9.82;100.00;96526.25;5095625;28;20003;-72
2022/10/20 05:54:47;;;;;;;;;;;;;;;9.81;100.00;96525.44;5094856;28;19955;-72
2022/10/20 05:57:13;;;;;;;;;;;;;;;9.80;100.00;96529.06;5095780;28;19978;-72
2022/10/20 05:59:39;;;;;;;;;;;;;;;9.82;100.00;96534.09;5096041;28;19997;-71
2022/10/20 06:02:05;;;;;;;;;;;;;;;9.82;100.00;96534.09;5095493;28;20437;-71
2022/10/20 06:04:31;;;;;;;;;;;;;;;9.84;100.00;96532.06;5095370;28;19954;-72
2022/10/20 06:06:57;;;;;;;;;;;;;;;9.83;100.00;96533.91;5094114;28;20336;-71
2022/10/20 06:09:23;;;;;;;;;;;;;;;9.83;100.00;96538.34;5095494;28;19960;-72
2022/10/20 06:11:49;;;;;;;;;;;;;;;9.84;100.00;96543.34;5095923;28;19954;-72
2022/10/20 06:14:16;;;;;;;;;;;;;;;9.85;100.00;96544.16;5095169;28;19954;-72
2022/10/20 06:16:42;;;;;;;;;;;;;;;9.81;100.00;96543.78;5095120;28;20441;-71
2022/10/20 06:19:09;;;;;;;;;;;;;;;9.80;100.00;96555.25;5095123;28;19977;-74
2022/10/20 06:21:36;;;;;;;;;;;;;;;9.80;100.00;96552.63;5095438;28;19955;-74
2022/10/20 06:24:03;;;;;;;;;;;;;;;9.80;100.00;96552.63;5095593;28;19951;-74
2022/10/20 06:26:31;;;;;;;;;;;;;;;9.81;100.00;96561.31;5095152;28;19947;-74
2022/10/20 06:28:58;;;;;;;;;;;;;;;9.82;100.00;96555.84;5095002;28;19962;-74
2022/10/20 06:31:28;;;;;;;;;;;;;;;9.83;100.00;96557.47;5094164;28;19957;-74
2022/10/20 06:33:54;;;;;;;;;;;;;;;9.86;100.00;96562.28;5094762;28;19957;-74
2022/10/20 06:36:20;;;;;;;;;;;;;;;9.88;100.00;96559.47;5095055;28;19956;-73
2022/10/20 06:38:47;;;;;;;;;;;;;;;9.91;100.00;96561.63;5094758;28;19968;-74
2022/10/20 06:41:14;;;;;;;;;;;;;;;9.93;100.00;96562.22;5095039;28;19961;-74
2022/10/20 06:43:41;;;;;;;;;;;;;;;9.98;100.00;96564.25;5094724;28;20000;-74
2022/10/20 06:46:09;;;;;;;;;;;;;;;10.01;100.00;96555.94;5094731;28;20413;-74
2022/10/20 06:48:35;;;;;;;;;;;;;;;10.05;100.00;96557.13;5094665;28;19958;-74
2022/10/20 06:51:03;;;;;;;;;;;;;;;10.10;100.00;96557.28;5094626;28;19957;-74
2022/10/20 06:53:29;;;;;;;;;;;;;;;10.16;100.00;96556.44;5094645;28;19957;-74
2022/10/20 06:55:56;;;;;;;;;;;;;;;10.23;100.00;96570.31;5094230;28;19979;-74
2022/10/20 06:58:22;;;;;;;;;;;;;;;10.30;100.00;96565.84;5094425;28;19953;-74
2022/10/20 07:00:56;;;;;;;;;;;;;;;10.41;100.00;96564.38;5094609;28;19984;-74
2022/10/20 07:03:22;;;;;;;;;;;;;;;10.52;100.00;96555.00;5094257;28;19968;-74
2022/10/20 07:05:48;;;;;;;;;;;;;;;10.64;100.00;96550.66;5094401;28;20042;-74
2022/10/20 07:08:14;;;;;;;;;;;;;;;10.76;100.00;96554.19;5092935;28;19976;-74
2022/10/20 07:10:40;;;;;;;;;;;;;;;10.88;100.00;96554.28;5094651;28;19993;-74
2022/10/20 07:13:05;;;;;;;;;;;;;;;10.99;100.00;96558.00;5078474;28;19999;-74
2022/10/20 07:15:31;;;;;;;;;;;;;;;11.08;100.00;96561.94;5094321;28;20396;-74
2022/10/20 07:17:57;;;;;;;;;;;;;;;11.18;100.00;96557.00;5093718;28;19953;-74
2022/10/20 07:20:23;;;;;;;;;;;;;;;11.29;100.00;96554.66;5094204;28;19996;-74
2022/10/20 07:22:49;;;;;;;;;;;;;;;11.45;100.00;96559.34;5094042;28;20060;-74
2022/10/20 07:25:15;;;;;;;;;;;;;;;11.65;100.00;96571.41;5094459;28;20405;-74
2022/10/20 07:27:41;;;;;;;;;;;;;;;11.84;100.00;96567.72;5093836;28;20314;-74
2022/10/20 07:30:06;;;;;;;;;;;;;;;11.98;100.00;96552.63;5093972;28;19952;-74
2022/10/20 07:32:32;;;;;;;;;;;;;;;12.03;100.00;96544.06;5093941;28;20360;-72
2022/10/20 07:34:58;;;;;;;;;;;;;;;11.91;100.00;96536.16;5093801;28;20406;-72
2022/10/20 07:37:24;;;;;;;;;;;;;;;11.88;100.00;96541.81;5093878;28;19950;-72
2022/10/20 07:39:50;;;;;;;;;;;;;;;11.89;100.00;96546.09;5093882;28;20011;-72
2022/10/20 07:42:16;;;;;;;;;;;;;;;11.88;100.00;96557.56;5093719;28;20120;-72
2022/10/20 07:44:41;;;;;;;;;;;;;;;11.89;100.00;96552.13;5092662;28;20401;-72
2022/10/20 07:47:07;;;;;;;;;;;;;;;11.99;100.00;96551.59;5093809;28;20028;-72
2022/10/20 07:49:33;;;;;;;;;;;;;;;12.08;100.00;96554.72;5093553;28;19952;-72
2022/10/20 07:51:59;;;;;;;;;;;;;;;12.19;100.00;96551.31;5093604;28;19959;-72
2022/10/20 07:54:25;;;;;;;;;;;;;;;12.27;100.00;96540.47;5093625;28;20351;-72
2022/10/20 07:56:51;;;;;;;;;;;;;;;12.39;100.00;96551.00;5093656;28;19981;-72
2022/10/20 07:59:17;;;;;;;;;;;;;;;12.50;100.00;96531.81;5093732;28;20310;-72
2022/10/20 08:01:43;;;;;;;;;;;;;;;12.58;100.00;96541.19;5093405;28;19952;-72
2022/10/20 08:04:09;;;;;;;;;;;;;;;12.66;100.00;96535.59;5093889;28;20373;-72
2022/10/20 08:06:34;;;;;;;;;;;;;;;12.77;100.00;96536.63;5093731;28;19952;-72
2022/10/20 08:09:00;;;;;;;;;;;;;;;12.85;100.00;96527.56;5093684;28;19983;-72
2022/10/20 08:11:26;;;;;;;;;;;;;;;12.90;100.00;96517.97;5093467;28;19966;-72
2022/10/20 08:13:52;;;;;;;;;;;;;;;12.95;100.00;96510.16;5093573;28;19957;-72
2022/10/20 08:16:18;;;;;;;;;;;;;;;13.07;100.00;96515.41;5093327;28;19959;-72
2022/10/20 08:18:44;;;;;;;;;;;;;;;13.19;100.00;96521.47;5097576;28;19981;-71
2022/10/20 08:21:14;;;;;;;;;;;;;;;13.27;100.00;96512.41;5097495;28;20015;-72
2022/10/20 08:23:42;;;;;;;;;;;;;;;13.26;100.00;96515.25;5097637;28;19977;-72
2022/10/20 08:26:08;;;;;;;;;;;;;;;13.31;100.00;96534.66;5097353;28;20318;-72
2022/10/20 08:28:34;;;;;;;;;;;;;;;13.40;100.00;96545.63;5097409;28;19955;-71
2022/10/20 08:31:04;;;;;;;;;;;;;;;13.57;100.00;96521.97;5097169;28;19971;-73
2022/10/20 08:33:30;;;;;;;;;;;;;;;13.67;100.00;96527.44;5097347;28;19948;-73
2022/10/20 08:36:03;;;;;;;;;;;;;;;13.70;100.00;96534.06;5097481;28;19956;-73
2022/10/20 08:38:29;;;;;;;;;;;;;;;13.68;100.00;96533.50;5097067;28;19954;-73
2022/10/20 08:40:55;;;;;;;;;;;;;;;13.68;100.00;96530.84;5097006;28;19954;-73
2022/10/20 08:43:21;;;;;;;;;;;;;;;13.68;100.00;96526.38;5097085;28;19992;-72
2022/10/20 08:45:46;;;;;;;;;;;;;;;13.64;99.63;96529.72;5095589;28;19950;-72
2022/10/20 08:48:15;;;;;;;;;;;;;;;13.59;99.83;96522.53;5097107;28;20012;-73
2022/10/20 08:50:43;;;;;;;;;;;;;;;13.48;99.55;96521.53;5094784;28;20433;-73
2022/10/20 08:53:09;;;;;;;;;;;;;;;13.46;100.00;96560.50;5086734;28;19965;-73
2022/10/20 08:55:35;;;;;;;;;;;;;;;13.45;100.00;96553.59;5095860;28;19949;-73
2022/10/20 08:58:01;;;;;;;;;;;;;;;13.46;100.00;96549.94;5096534;28;20025;-73
2022/10/20 09:00:29;;;;;;;;;;;;;;;13.48;100.00;96553.16;5095794;28;19954;-73
2022/10/20 09:02:59;;;;;;;;;;;;;;;13.50;100.00;96545.00;5096807;28;20329;-73
2022/10/20 09:05:27;;;;;;;;;;;;;;;13.56;100.00;96536.16;5095857;28;20356;-73
2022/10/20 09:07:53;;;;;;;;;;;;;;;13.63;100.00;96551.81;5096469;28;19944;-73
2022/10/20 09:10:36;;;;;;;;;;;;;;;13.68;100.00;96536.91;5096646;28;19961;-73
2022/10/20 09:13:05;;;;;;;;;;;;;;;13.72;100.00;96548.59;5080653;28;20387;-73
2022/10/20 09:15:31;;;;;;;;;;;;;;;13.74;100.00;96538.63;5096522;28;19954;-73
2022/10/20 09:18:08;;;;;;;;;;;;;;;13.74;100.00;96548.38;5096355;28;20045;-72
2022/10/20 09:20:41;;;;;;;;;;;;;;;13.75;100.00;96566.59;5096351;28;20444;-73
2022/10/20 09:23:17;;;;;;;;;;;;;;;13.78;100.00;96579.28;5096677;28;19972;-72
2022/10/20 09:25:44;;;;;;;;;;;;;;;13.72;100.00;96558.34;5096172;28;20299;-72
2022/10/20 09:28:21;;;;;;;;;;;;;;;13.67;100.00;96576.69;5095596;28;20418;-73
2022/10/20 09:30:47;;;;;;;;;;;;;;;13.67;100.00;96566.97;5085440;28;19948;-73
2022/10/20 09:33:20;;;;;;;;;;;;;;;13.67;100.00;96579.31;5096000;28;20401;-72
2022/10/20 09:35:47;;;;;;;;;;;;;;;13.66;100.00;96570.63;5096514;28;20324;-73
2022/10/20 09:38:22;;;;;;;;;;;;;;;13.68;100.00;96562.47;5096180;28;19953;-72
2022/10/20 09:41:05;;;;;;;;;;;;;;;13.69;100.00;96566.72;5095869;28;19950;-72
2022/10/20 09:43:31;;;;;;;;;;;;;;;13.72;100.00;96560.97;5095771;28;20402;-72
2022/10/20 09:46:02;;;;;;;;;;;;;;;13.74;100.00;96561.56;5096097;28;20432;-72
2022/10/20 09:48:31;;;;;;;;;;;;;;;13.78;100.00;96554.78;5095626;28;19952;-72
2022/10/20 09:50:58;;;;;;;;;;;;;;;13.87;100.00;96563.91;5095711;28;19962;-72
2022/10/20 09:53:31;;;;;;;;;;;;;;;13.98;100.00;96562.25;5095827;28;19954;-72
2022/10/20 09:55:57;;;;;;;;;;;;;;;14.05;100.00;96557.63;5094982;28;19957;-72
2022/10/20 09:58:26;;;;;;;;;;;;;;;14.09;100.00;96561.41;5095826;28;20324;-73
2022/10/20 10:01:15;;;;;;;;;;;;;;;14.15;100.00;96560.47;5095535;28;19950;-72
2022/10/20 10:03:43;;;;;;;;;;;;;;;14.20;100.00;96551.81;5087141;28;19968;-72
2022/10/20 10:06:28;;;;;;;;;;;;;;;14.26;100.00;96558.78;5095314;28;19955;-72
2022/10/20 10:08:55;;;;;;;;;;;;;;;14.34;100.00;96565.50;5095047;28;19959;-72
2022/10/20 10:11:23;;;;;;;;;;;;;;;14.38;100.00;96561.34;5095126;28;19939;-73
2022/10/20 10:13:50;;;;;;;;;;;;;;;14.46;100.00;96563.59;5095274;28;19959;-72
2022/10/20 10:16:18;;;;;;;;;;;;;;;14.55;100.00;96562.19;5095396;28;19954;-72
2022/10/20 10:18:53;;;;;;;;;;;;;;;14.61;100.00;96560.41;5095129;28;19982;-73
2022/10/20 10:21:19;;;;;;;;;;;;;;;14.70;100.00;96566.09;5095257;28;20421;-73
2022/10/20 10:23:54;;;;;;;;;;;;;;;14.72;100.00;96556.09;5094954;28;19978;-72
2022/10/20 10:26:39;;;;;;;;;;;;;;;14.75;100.00;96564.34;5094298;28;19955;-72
2022/10/20 10:29:14;;;;;;;;;;;;;;;14.77;100.00;96553.53;5080786;28;19948;-73
2022/10/20 10:31:45;;;;;;;;;;;;;;;14.77;100.00;96553.53;5095208;28;19957;-73
2022/10/20 10:34:11;;;;;;;;;;;;;;;14.76;100.00;96551.94;5094867;28;19949;-73
2022/10/20 10:36:37;;;;;;;;;;;;;;;14.75;100.00;96545.06;5094814;28;19952;-73
2022/10/20 10:39:04;;;;;;;;;;;;;;;14.73;100.00;96542.66;5094815;28;19951;-73
2022/10/20 10:41:51;;;;;;;;;;;;;;;14.65;100.00;96526.44;5094594;28;19949;-73
2022/10/20 10:44:35;;;;;;;;;;;;;;;14.64;100.00;96546.75;5094603;28;19977;-74
2022/10/20 10:47:20;;;;;;;;;;;;;;;14.72;100.00;96554.28;5094883;28;20409;-75
2022/10/20 10:49:51;;;;;;;;;;;;;;;14.81;100.00;96542.25;5086098;28;20343;-73
2022/10/20 10:52:32;;;;;;;;;;;;;;;14.89;100.00;96543.69;5094601;28;20316;-73
2022/10/20 10:54:58;;;;;;;;;;;;;;;14.93;100.00;96534.25;5094804;28;19962;-73
2022/10/20 10:57:44;;;;;;;;;;;;;;;14.96;100.00;96533.75;5095121;28;20317;-73
2022/10/20 11:00:13;;;;;;;;;;;;;;;14.98;100.00;96536.94;5094118;28;20313;-73
2022/10/20 11:02:59;;;;;;;;;;;;;;;15.04;99.84;96524.63;5093348;28;19958;-73
2022/10/20 11:05:28;;;;;;;;;;;;;;;15.09;100.00;96532.59;5094417;28;19949;-73
2022/10/20 11:08:14;;;;;;;;;;;;;;;15.10;99.50;96518.34;5094295;28;19958;-73
2022/10/20 11:10:45;;;;;;;;;;;;;;;15.11;100.00;96545.56;5083270;28;19951;-73
2022/10/20 11:13:11;;;;;;;;;;;;;;;15.14;100.00;96535.31;5094026;28;19956;-73
2022/10/20 11:15:47;;;;;;;;;;;;;;;15.17;100.00;96534.81;5094486;28;19957;-73
2022/10/20 11:18:32;;;;;;;;;;;;;;;15.20;100.00;96526.41;5092807;28;19962;-72
2022/10/20 11:21:05;;;;;;;;;;;;;;;15.25;100.00;96514.31;5092911;28;19960;-73
2022/10/20 11:23:34;;;;;;;;;;;;;;;15.29;99.79;96505.66;5094137;28;19963;-73
2022/10/20 11:26:04;;;;;;;;;;;;;;;15.31;100.00;96508.84;5094043;28;19959;-73
2022/10/20 11:28:33;;;;;;;;;;;;;;;15.33;99.33;96492.72;5093777;28;19943;-73
2022/10/20 11:30:59;;;;;;;;;;;;;;;15.34;97.64;96486.41;5092693;28;19949;-73
2022/10/20 11:33:40;;;;;;;;;;;;;;;15.36;99.59;96505.44;5094025;28;19955;-73
2022/10/20 11:36:11;;;;;;;;;;;;;;;15.40;99.96;96507.34;5093688;28;19960;-73
2022/10/20 11:38:44;;;;;;;;;;;;;;;15.43;99.28;96491.00;5094448;28;20366;-73
2022/10/20 11:41:21;;;;;;;;;;;;;;;15.47;99.01;96491.28;5093633;28;19959;-73
2022/10/20 11:44:06;;;;;;;;;;;;;;;15.49;98.28;96483.91;5093675;28;19978;-73
2022/10/20 11:46:42;;;;;;;;;;;;;;;15.52;98.64;96477.38;5093701;28;19962;-73
2022/10/20 11:49:11;;;;;;;;;;;;;;;15.57;98.90;96480.03;5080480;28;19963;-73
2022/10/20 11:51:55;;;;;;;;;;;;;;;15.59;98.68;96484.03;5093210;28;19963;-73
2022/10/20 11:54:24;;;;;;;;;;;;;;;15.62;98.01;96467.69;5075629;28;19952;-73
2022/10/20 11:56:57;;;;;;;;;;;;;;;15.66;98.24;96475.09;5093745;28;19972;-73
2022/10/20 11:59:26;;;;;;;;;;;;;;;15.69;98.73;96493.13;5094021;28;19956;-73
2022/10/20 12:02:01;;;;;;;;;;;;;;;15.71;97.40;96481.25;5093568;28;19954;-73
2022/10/20 12:04:27;;;;;;;;;;;;;;;15.73;98.54;96494.25;5093595;28;20454;-73
2022/10/20 12:07:16;;;;;;;;;;;;;;;15.72;98.08;96485.50;5093666;28;19961;-73
2022/10/20 12:10:00;;;;;;;;;;;;;;;15.71;98.59;96475.97;5085224;28;19947;-73
2022/10/20 12:12:31;;;;;;;;;;;;;;;15.72;97.91;96468.84;5093647;28;20314;-73
2022/10/20 12:14:59;;;;;;;;;;;;;;;15.72;98.03;96471.50;5093527;28;19960;-73
2022/10/20 12:17:36;;;;;;;;;;;;;;;15.72;98.07;96458.28;5093338;28;19964;-73
2022/10/20 12:20:20;;;;;;;;;;;;;;;15.70;96.53;96429.41;5093327;28;19983;-73
2022/10/20 12:22:50;;;;;;;;;;;;;;;15.71;97.36;96443.44;5079509;28;19954;-73
2022/10/20 12:25:18;;;;;;;;;;;;;;;15.71;97.71;96438.94;5093923;28;19953;-73
2022/10/20 12:27:44;;;;;;;;;;;;;;;15.71;97.04;96431.03;5093384;28;19949;-73
2022/10/20 12:30:16;;;;;;;;;;;;;;;15.72;96.51;96434.47;5093321;28;19996;-73
2022/10/20 12:33:03;;;;;;;;;;;;;;;15.72;97.47;96429.19;5093334;28;20401;-73
2022/10/20 12:35:29;;;;;;;;;;;;;;;15.71;98.75;96440.81;5093256;28;19957;-73
2022/10/20 12:38:04;;;;;;;;;;;;;;;15.68;98.30;96444.72;5093729;28;19958;-73
2022/10/20 12:40:39;;;;;;;;;;;;;;;15.67;99.22;96447.63;5093156;28;19956;-73
2022/10/20 12:43:21;;;;;;;;;;;;;;;15.63;99.96;96445.47;5093200;28;19969;-73
2022/10/20 12:45:47;;;;;;;;;;;;;;;15.65;100.00;96445.25;5093470;28;19953;-73
2022/10/20 12:48:20;;;;;;;;;;;;;;;15.66;100.00;96438.88;5092436;28;20014;-73